»·PEaware :: N286WF KVNY-KSMX

N286WF :: KVNY-KSMX

FLIGHT INFORMATION

Flight Status: Arrived
Operator: Privately registered:
United States
More flights under this callsign
Pilot: Frank W. (16848)
Aircraft: Unknown
(P28U)
More flights by this aircraft type
Origin: KVNY Van Nuys
United States
Destination: KSMX Santa Maria Pub/Capt Hancock
United States
More flights between these airports :: More routes between these airports
Route: SUANA FIM RZS
File this flight plan on PilotEdge
Remarks: with Advisories
Altitude:
(Current/Filed)
6,500ft
Speed:
(Current/Filed)
140kts
Departed: 12-Jan-20 04:02 PM
Arrived: 12-Jan-20 05:02 PM
Distance/Time
Traveled:
105nm/1:00
Distance/Time
To Go:
Arrived

Flight Plot

Page will automatically refresh every two minutes.


Map Options




Map Legend


Flown Route
Filed Route
Departure Airport
Arrival Airport
Navaid (VOR, NDB)
Fix

Horizontal Profiles

Position Reports

Time Latitude Longitude Heading Altitude Ground
Speed
12-Jan-20 15:06 34.210108 -118.491896 87 805ft 0kts
12-Jan-20 15:07 34.210108 -118.491896 87 805ft 0kts
12-Jan-20 15:08 34.210108 -118.491896 87 805ft 0kts
12-Jan-20 15:09 34.210108 -118.491896 87 805ft 0kts
12-Jan-20 15:10 34.210108 -118.491896 87 805ft 0kts
12-Jan-20 15:11 34.210108 -118.491896 87 805ft 0kts
12-Jan-20 15:12 34.210108 -118.491895 86 805ft 0kts
12-Jan-20 15:13 34.210108 -118.491896 86 805ft 0kts
12-Jan-20 15:14 34.210108 -118.491896 86 805ft 0kts
12-Jan-20 15:15 34.210108 -118.491896 86 805ft 0kts
12-Jan-20 15:16 34.210108 -118.491896 86 805ft 0kts
12-Jan-20 15:17 34.210108 -118.491896 86 805ft 0kts
12-Jan-20 15:18 34.210108 -118.491896 86 805ft 0kts
12-Jan-20 15:19 34.210108 -118.491896 86 805ft 0kts
12-Jan-20 15:20 34.210108 -118.491896 86 805ft 0kts
12-Jan-20 15:21 34.210108 -118.491896 86 805ft 0kts
12-Jan-20 15:22 34.210108 -118.491896 86 805ft 0kts
12-Jan-20 15:23 34.210108 -118.491896 86 805ft 0kts
12-Jan-20 15:24 34.210108 -118.491896 86 805ft 0kts
12-Jan-20 15:25 34.210108 -118.491896 86 805ft 0kts
12-Jan-20 15:26 34.210108 -118.491896 86 805ft 0kts
12-Jan-20 15:27 34.210108 -118.491896 86 805ft 0kts
12-Jan-20 15:28 34.210108 -118.491896 86 805ft 0kts
12-Jan-20 15:29 34.210108 -118.491896 86 805ft 0kts
12-Jan-20 15:30 34.210108 -118.491896 86 805ft 0kts
12-Jan-20 15:31 34.210108 -118.491896 86 805ft 0kts
12-Jan-20 15:32 34.210108 -118.491896 86 805ft 0kts
12-Jan-20 15:33 34.210108 -118.491896 86 805ft 0kts
12-Jan-20 15:34 34.210108 -118.491896 86 805ft 0kts
12-Jan-20 15:35 34.210108 -118.491896 86 805ft 0kts
12-Jan-20 15:36 34.210108 -118.491896 86 805ft 0kts
12-Jan-20 15:37 34.210108 -118.491896 86 805ft 0kts
12-Jan-20 15:38 34.210108 -118.491896 86 805ft 0kts
12-Jan-20 15:39 34.210108 -118.491896 86 805ft 0kts
12-Jan-20 15:40 34.210108 -118.491896 86 805ft 0kts
12-Jan-20 15:41 34.210108 -118.491896 86 805ft 0kts
12-Jan-20 15:42 34.210108 -118.491896 86 805ft 0kts
12-Jan-20 15:43 34.210108 -118.491896 86 805ft 0kts
12-Jan-20 15:44 34.210108 -118.491896 86 805ft 0kts
12-Jan-20 15:45 34.210108 -118.491896 86 805ft 0kts
12-Jan-20 15:46 34.210108 -118.491892 86 805ft 0kts
12-Jan-20 15:47 34.210108 -118.491892 86 805ft 0kts
12-Jan-20 15:48 34.210657 -118.491625 353 805ft 12kts
12-Jan-20 15:49 34.215921 -118.492203 351 805ft 13kts
12-Jan-20 15:50 34.219202 -118.492286 121 805ft 0kts
12-Jan-20 15:51 34.219201 -118.492286 121 805ft 0kts
12-Jan-20 15:52 34.219201 -118.492286 121 805ft 0kts
12-Jan-20 15:53 34.219201 -118.492286 121 805ft 0kts
12-Jan-20 15:54 34.219202 -118.492286 121 805ft 0kts
12-Jan-20 15:55 34.219202 -118.492286 121 805ft 0kts
12-Jan-20 15:56 34.219202 -118.492286 121 805ft 0kts
12-Jan-20 15:57 34.219202 -118.492286 121 805ft 0kts
12-Jan-20 15:58 34.218699 -118.492128 61 805ft 0kts
12-Jan-20 15:59 34.218708 -118.492108 61 805ft 0kts
12-Jan-20 16:00 34.218392 -118.491190 171 805ft 0kts
12-Jan-20 16:01 34.209679 -118.490420 176 872ft 79kts
12-Jan-20 16:02 34.186650 -118.490260 155 1654ft 83kts
12-Jan-20 16:03 34.171783 -118.510325 258 2417ft 101kts
12-Jan-20 16:04 34.184381 -118.542002 304 2605ft 128kts
12-Jan-20 16:05 34.199175 -118.581729 286 2665ft 120kts
12-Jan-20 16:06 34.207065 -118.620249 271 3251ft 97kts
12-Jan-20 16:07 34.212642 -118.654776 280 3703ft 105kts
12-Jan-20 16:08 34.218857 -118.689790 279 4204ft 105kts
12-Jan-20 16:09 34.228095 -118.723099 307 4618ft 108kts
12-Jan-20 16:10 34.248650 -118.748690 307 5051ft 107kts
12-Jan-20 16:11 34.269663 -118.774030 306 5440ft 107kts
12-Jan-20 16:12 34.290818 -118.799417 306 5787ft 107kts
12-Jan-20 16:13 34.315229 -118.829421 308 5444ft 123kts
12-Jan-20 16:14 34.339216 -118.857498 306 5683ft 105kts
12-Jan-20 16:15 34.356682 -118.885358 280 6177ft 107kts
12-Jan-20 16:16 34.364515 -118.920607 280 6520ft 116kts
12-Jan-20 16:17 34.372366 -118.960596 279 6538ft 116kts
12-Jan-20 16:18 34.379884 -119.001409 280 6480ft 117kts
12-Jan-20 16:19 34.386910 -119.040596 280 6526ft 121kts
12-Jan-20 16:20 34.394044 -119.081208 280 6406ft 128kts
12-Jan-20 16:21 34.401281 -119.122411 279 6391ft 123kts
12-Jan-20 16:22 34.408377 -119.163003 279 6393ft 122kts
12-Jan-20 16:23 34.415429 -119.203445 279 6394ft 122kts
12-Jan-20 16:24 34.422396 -119.243462 279 6395ft 122kts
12-Jan-20 16:25 34.429334 -119.283091 278 6396ft 116kts
12-Jan-20 16:26 34.436042 -119.321750 278 6395ft 117kts
12-Jan-20 16:27 34.442743 -119.360399 277 6424ft 114kts
12-Jan-20 16:28 34.449185 -119.397831 276 6502ft 115kts
12-Jan-20 16:29 34.455874 -119.436540 276 6500ft 117kts
12-Jan-20 16:30 34.462600 -119.475561 275 6499ft 118kts
12-Jan-20 16:31 34.469394 -119.515101 275 6497ft 120kts
12-Jan-20 16:32 34.476205 -119.554881 275 6497ft 120kts
12-Jan-20 16:33 34.483010 -119.594667 275 6497ft 120kts
12-Jan-20 16:34 34.489798 -119.634423 275 6496ft 120kts
12-Jan-20 16:35 34.496597 -119.674334 274 6500ft 120kts
12-Jan-20 16:36 34.503402 -119.714329 274 6500ft 121kts
12-Jan-20 16:37 34.510184 -119.754283 274 6500ft 121kts
12-Jan-20 16:38 34.525904 -119.791403 295 6500ft 126kts
12-Jan-20 16:39 34.545680 -119.826343 297 6502ft 124kts
12-Jan-20 16:40 34.565305 -119.860638 298 6503ft 122kts
12-Jan-20 16:41 34.584698 -119.894454 299 6504ft 121kts
12-Jan-20 16:42 34.603903 -119.927951 299 6505ft 120kts
12-Jan-20 16:43 34.622873 -119.961182 299 6506ft 118kts
12-Jan-20 16:44 34.640414 -119.994865 300 6344ft 118kts
12-Jan-20 16:45 34.658416 -120.027063 302 6034ft 112kts
12-Jan-20 16:46 34.676391 -120.058632 302 5656ft 111kts
12-Jan-20 16:47 34.695572 -120.089303 306 5260ft 114kts
12-Jan-20 16:48 34.713832 -120.120519 303 4932ft 113kts
12-Jan-20 16:49 34.731589 -120.152064 303 4568ft 117kts
12-Jan-20 16:50 34.749116 -120.183269 303 4319ft 112kts
12-Jan-20 16:51 34.766846 -120.214863 303 4029ft 112kts
12-Jan-20 16:52 34.784439 -120.246205 303 3784ft 109kts
12-Jan-20 16:53 34.801980 -120.277380 303 3502ft 111kts
12-Jan-20 16:54 34.819227 -120.308377 303 3276ft 110kts
12-Jan-20 16:55 34.823428 -120.345277 274 3026ft 112kts
12-Jan-20 16:57 34.828074 -120.379937 313 2223ft 100kts
12-Jan-20 16:58 34.850102 -120.395884 316 1576ft 86kts
12-Jan-20 16:59 34.867503 -120.415696 309 1029ft 78kts
12-Jan-20 17:00 34.883159 -120.433895 306 571ft 77kts
12-Jan-20 17:01 34.896489 -120.450287 329 264ft 55kts
12-Jan-20 17:02 34.898834 -120.451423 93 264ft 0kts
12-Jan-20 17:03 34.898831 -120.451329 92 264ft 1kts
12-Jan-20 17:04 34.898256 -120.449915 135 264ft 7kts
12-Jan-20 17:05 34.896639 -120.447911 105 264ft 9kts
12-Jan-20 17:06 34.897127 -120.446589 145 264ft 0kts
12-Jan-20 17:07 34.897127 -120.446589 145 264ft 0kts
12-Jan-20 17:08 34.897127 -120.446589 145 264ft 0kts
12-Jan-20 17:09 34.897127 -120.446589 145 264ft 0kts
12-Jan-20 17:10 34.897127 -120.446589 145 264ft 0kts
12-Jan-20 17:11 34.897127 -120.446589 145 264ft 0kts
12-Jan-20 17:12 34.897127 -120.446589 145 264ft 0kts
12-Jan-20 17:13 34.897127 -120.446589 145 264ft 0kts
12-Jan-20 17:14 34.897127 -120.446589 145 264ft 0kts
12-Jan-20 17:15 34.897127 -120.446589 145 264ft 0kts
12-Jan-20 17:16 34.897127 -120.446589 145 264ft 0kts
12-Jan-20 17:16 34.897127 -120.446589 145 264ft 0kts

Navigation Log

Ident Type
Flight plan parsing failed, navigation log unavailable